createdAt,value
2023-05-04T00:00:06.703Z,10.55
2023-05-04T00:02:33.782Z,10.51
2023-05-04T00:05:00.492Z,10.49
2023-05-04T00:07:27.174Z,10.48
2023-05-04T00:09:53.746Z,10.46
2023-05-04T00:12:20.316Z,10.44
2023-05-04T00:14:46.901Z,10.41
2023-05-04T00:17:13.619Z,10.39
2023-05-04T00:19:40.264Z,10.38
2023-05-04T00:22:06.890Z,10.33
2023-05-04T00:24:34.000Z,10.32
2023-05-04T00:27:00.708Z,10.27
2023-05-04T00:29:27.448Z,10.26
2023-05-04T00:31:54.341Z,10.22
2023-05-04T00:34:20.980Z,10.20
2023-05-04T00:36:47.697Z,10.17
2023-05-04T00:39:14.369Z,10.13
2023-05-04T00:41:41.215Z,10.12
2023-05-04T00:44:08.030Z,10.11
2023-05-04T00:46:37.373Z,10.08
2023-05-04T00:49:04.691Z,10.06
2023-05-04T00:51:31.671Z,10.03
2023-05-04T00:53:58.639Z,10.03
2023-05-04T00:56:26.567Z,10.02
2023-05-04T00:58:53.394Z,10.02
2023-05-04T01:01:23.518Z,10.00
2023-05-04T01:03:51.780Z,10.02
2023-05-04T01:06:27.845Z,9.99
2023-05-04T01:09:07.967Z,9.99
2023-05-04T01:11:42.725Z,9.99
2023-05-04T01:14:11.906Z,9.98
2023-05-04T01:16:38.729Z,9.96
2023-05-04T01:19:05.512Z,9.96
2023-05-04T01:21:32.099Z,9.96
2023-05-04T01:23:59.332Z,9.94
2023-05-04T01:26:30.178Z,9.92
2023-05-04T01:29:08.944Z,9.91
2023-05-04T01:31:38.738Z,9.89
2023-05-04T01:34:07.577Z,9.89
2023-05-04T01:36:34.689Z,9.89
2023-05-04T01:39:03.502Z,9.87
2023-05-04T01:41:33.112Z,9.85
2023-05-04T01:43:59.828Z,9.84
2023-05-04T01:46:26.638Z,9.83
2023-05-04T01:48:53.464Z,9.82
2023-05-04T01:51:22.391Z,9.79
2023-05-04T01:53:50.173Z,9.78
2023-05-04T01:56:17.852Z,9.76
2023-05-04T01:58:44.952Z,9.72
2023-05-04T02:01:11.496Z,9.70
2023-05-04T02:03:38.290Z,9.67
2023-05-04T02:06:05.065Z,9.64
2023-05-04T02:08:31.712Z,9.60
2023-05-04T02:10:58.416Z,9.57
2023-05-04T02:13:25.105Z,9.55
2023-05-04T02:15:51.762Z,9.51
2023-05-04T02:18:18.424Z,9.49
2023-05-04T02:20:45.204Z,9.47
2023-05-04T02:23:14.199Z,9.43
2023-05-04T02:25:40.876Z,9.41
2023-05-04T02:28:09.080Z,9.37
2023-05-04T02:30:37.201Z,9.36
2023-05-04T02:33:03.980Z,9.32
2023-05-04T02:35:30.845Z,9.30
2023-05-04T02:37:57.997Z,9.26
2023-05-04T02:40:24.634Z,9.24
2023-05-04T02:42:51.294Z,9.22
2023-05-04T02:45:18.131Z,9.19
2023-05-04T02:47:44.829Z,9.17
2023-05-04T02:50:11.699Z,9.15
2023-05-04T02:52:38.422Z,9.12
2023-05-04T02:55:05.537Z,9.11
2023-05-04T02:57:32.436Z,9.10
2023-05-04T02:59:59.042Z,9.07
2023-05-04T03:02:25.598Z,9.05
2023-05-04T03:04:52.379Z,9.04
2023-05-04T03:07:19.052Z,9.02
2023-05-04T03:09:47.754Z,9.01
2023-05-04T03:12:14.796Z,9.00
2023-05-04T03:14:42.354Z,8.99
2023-05-04T03:17:08.961Z,8.96
2023-05-04T03:19:36.066Z,8.95
2023-05-04T03:22:03.443Z,8.92
2023-05-04T03:24:30.058Z,8.92
2023-05-04T03:26:56.869Z,8.89
2023-05-04T03:29:24.436Z,8.86
2023-05-04T03:31:52.056Z,8.85
2023-05-04T03:34:18.802Z,8.82
2023-05-04T03:36:45.502Z,8.78
2023-05-04T03:39:12.115Z,8.76
2023-05-04T03:41:39.033Z,8.73
2023-05-04T03:44:05.702Z,8.69
2023-05-04T03:46:32.457Z,8.65
2023-05-04T03:48:59.350Z,8.62
2023-05-04T03:51:26.918Z,8.60
2023-05-04T03:53:53.541Z,8.58
2023-05-04T03:56:20.218Z,8.56
2023-05-04T03:58:46.869Z,8.56
2023-05-04T04:01:16.592Z,8.53
2023-05-04T04:03:43.695Z,8.54
2023-05-04T04:06:11.243Z,8.53
2023-05-04T04:08:38.389Z,8.53
2023-05-04T04:11:05.248Z,8.56
2023-05-04T04:13:32.057Z,8.58
2023-05-04T04:15:58.753Z,8.60
2023-05-04T04:18:25.472Z,8.64
2023-05-04T04:20:52.129Z,8.67
2023-05-04T04:23:18.960Z,8.71
2023-05-04T04:25:46.547Z,8.78
2023-05-04T04:28:15.911Z,8.80
2023-05-04T04:30:42.700Z,8.87
2023-05-04T04:33:10.031Z,8.94
2023-05-04T04:35:36.939Z,9.00
2023-05-04T04:38:04.029Z,9.07
2023-05-04T04:40:30.814Z,9.15
2023-05-04T04:42:57.456Z,9.19
2023-05-04T04:45:24.079Z,9.23
2023-05-04T04:47:51.170Z,9.31
2023-05-04T04:50:17.961Z,9.39
2023-05-04T04:52:44.622Z,9.46
2023-05-04T04:55:11.404Z,9.54
2023-05-04T04:57:38.017Z,9.60
2023-05-04T05:00:05.479Z,9.70
2023-05-04T05:02:32.239Z,9.77
2023-05-04T05:04:59.189Z,9.86
2023-05-04T05:07:25.866Z,9.95
2023-05-04T05:09:52.483Z,10.06
2023-05-04T05:12:19.153Z,10.13
2023-05-04T05:14:45.767Z,10.22
2023-05-04T05:17:12.334Z,10.31
2023-05-04T05:19:40.307Z,10.38
2023-05-04T05:22:08.963Z,10.46
2023-05-04T05:24:35.529Z,10.53
2023-05-04T05:27:02.080Z,10.60
2023-05-04T05:29:28.724Z,10.68
2023-05-04T05:31:55.284Z,10.74
2023-05-04T05:34:21.824Z,10.82
2023-05-04T05:36:48.532Z,10.88
2023-05-04T05:39:15.100Z,10.97
2023-05-04T05:41:41.764Z,11.02
2023-05-04T05:44:08.552Z,11.09
2023-05-04T05:46:35.855Z,11.15
2023-05-04T05:49:05.938Z,11.19
2023-05-04T05:51:32.480Z,11.28
2023-05-04T05:53:59.239Z,11.35
2023-05-04T05:56:25.804Z,11.41
2023-05-04T05:58:52.351Z,11.45
2023-05-04T06:01:19.065Z,11.56
2023-05-04T06:03:45.690Z,11.62
2023-05-04T06:06:12.435Z,11.65
2023-05-04T06:08:39.055Z,11.75
2023-05-04T06:11:05.687Z,11.83
2023-05-04T06:13:32.562Z,11.89
2023-05-04T06:15:59.322Z,11.98
2023-05-04T06:18:25.884Z,12.05
2023-05-04T06:20:58.471Z,12.09
2023-05-04T06:23:25.225Z,12.18
2023-05-04T06:25:52.004Z,12.23
2023-05-04T06:28:18.722Z,12.22
2023-05-04T06:30:45.359Z,12.31
2023-05-04T06:33:11.967Z,12.37
2023-05-04T06:35:38.651Z,12.42
2023-05-04T06:38:05.348Z,12.50
2023-05-04T06:40:31.876Z,12.56
2023-05-04T06:42:58.560Z,12.64
2023-05-04T06:45:25.199Z,12.69
2023-05-04T06:47:52.070Z,12.76
2023-05-04T06:50:18.646Z,12.83
2023-05-04T06:52:45.684Z,12.95
2023-05-04T06:55:12.540Z,13.05
2023-05-04T06:57:39.252Z,13.18
2023-05-04T07:00:06.915Z,13.28
2023-05-04T07:02:33.632Z,13.37
2023-05-04T07:05:00.356Z,13.45
2023-05-04T07:07:26.953Z,13.51
2023-05-04T07:09:53.505Z,13.55
2023-05-04T07:12:20.348Z,13.63
2023-05-04T07:14:46.898Z,13.67
2023-05-04T07:17:13.442Z,13.75
2023-05-04T07:19:40.227Z,13.81
2023-05-04T07:22:06.785Z,13.91
2023-05-04T07:24:33.491Z,13.98
2023-05-04T07:27:00.167Z,14.05
2023-05-04T07:29:26.715Z,14.14
2023-05-04T07:31:53.361Z,14.21
2023-05-04T07:34:23.179Z,14.29
2023-05-04T07:36:51.896Z,14.41
2023-05-04T07:39:18.487Z,14.52
2023-05-04T07:41:46.650Z,14.66
2023-05-04T07:44:14.927Z,14.75
2023-05-04T07:46:41.689Z,14.84
2023-05-04T07:49:08.540Z,14.98
2023-05-04T07:51:35.258Z,15.10
2023-05-04T07:54:01.939Z,15.17
2023-05-04T07:56:28.770Z,15.31
2023-05-04T07:58:55.425Z,15.42
2023-05-04T08:01:22.373Z,15.53
2023-05-04T08:03:48.960Z,15.59
2023-05-04T08:06:15.514Z,15.65
2023-05-04T08:08:42.258Z,15.70
2023-05-04T08:11:19.081Z,15.78
2023-05-04T08:13:49.806Z,16.01
2023-05-04T08:16:16.580Z,16.06
2023-05-04T08:18:43.372Z,16.11
2023-05-04T08:21:10.061Z,16.12
2023-05-04T08:23:36.773Z,16.15
2023-05-04T08:26:04.554Z,16.21
2023-05-04T08:28:33.122Z,16.27
2023-05-04T08:31:00.040Z,16.36
2023-05-04T08:33:26.664Z,16.40
2023-05-04T08:35:53.416Z,16.41
2023-05-04T08:38:20.041Z,16.45
2023-05-04T08:40:47.406Z,16.43
2023-05-04T08:43:15.521Z,16.46
2023-05-04T08:45:42.409Z,16.50
2023-05-04T08:48:10.018Z,16.61
2023-05-04T08:50:38.412Z,16.60
2023-05-04T08:53:12.051Z,16.63
2023-05-04T08:55:41.685Z,16.68
2023-05-04T08:58:11.876Z,16.71
2023-05-04T09:00:39.294Z,16.73
2023-05-04T09:03:07.165Z,16.80
2023-05-04T09:05:34.766Z,16.91
2023-05-04T09:08:01.405Z,16.98
2023-05-04T09:10:29.704Z,17.04
2023-05-04T09:12:56.651Z,17.12
2023-05-04T09:15:23.442Z,17.12
2023-05-04T09:18:04.369Z,17.18
2023-05-04T09:20:31.544Z,17.19
2023-05-04T09:23:05.759Z,17.25
2023-05-04T09:25:32.663Z,17.33
2023-05-04T09:27:59.283Z,17.31
2023-05-04T09:30:26.107Z,17.35
2023-05-04T09:32:52.703Z,17.38
2023-05-04T09:35:33.170Z,17.46
2023-05-04T09:38:01.347Z,17.52
2023-05-04T09:40:46.208Z,17.64
2023-05-04T09:43:12.810Z,17.74
2023-05-04T09:45:44.490Z,17.76
2023-05-04T09:48:37.662Z,17.80
2023-05-04T09:51:06.359Z,17.84
2023-05-04T09:53:33.977Z,17.97
2023-05-04T09:56:14.856Z,17.81
2023-05-04T09:58:43.492Z,17.94
2023-05-04T10:01:10.630Z,17.99
2023-05-04T10:03:37.819Z,18.02
2023-05-04T10:06:05.590Z,18.06
2023-05-04T10:08:33.122Z,18.12
2023-05-04T10:10:59.722Z,18.23
2023-05-04T10:13:26.685Z,18.32
2023-05-04T10:16:04.292Z,18.39
2023-05-04T10:18:40.988Z,18.44
2023-05-04T10:21:29.854Z,18.59
2023-05-04T10:24:31.715Z,18.66
2023-05-04T10:27:07.749Z,18.73
2023-05-04T10:29:35.220Z,18.84
2023-05-04T10:32:02.541Z,18.89
2023-05-04T10:34:31.525Z,19.00
2023-05-04T10:36:59.529Z,19.08
2023-05-04T10:39:33.650Z,19.18
2023-05-04T10:42:07.502Z,19.28
2023-05-04T10:44:36.768Z,19.26
2023-05-04T10:47:08.166Z,19.27
2023-05-04T10:49:36.120Z,19.32
2023-05-04T10:52:13.481Z,19.36
2023-05-04T10:54:41.060Z,19.42
2023-05-04T10:57:09.490Z,19.47
2023-05-04T10:59:36.917Z,19.54
2023-05-04T11:02:04.873Z,19.63
2023-05-04T11:04:32.292Z,19.71
2023-05-04T11:07:04.147Z,19.79
2023-05-04T11:09:39.676Z,19.85
2023-05-04T11:12:07.512Z,19.93
2023-05-04T11:14:34.162Z,19.90
2023-05-04T11:17:26.745Z,20.02
2023-05-04T11:19:54.738Z,20.01
2023-05-04T11:22:21.444Z,20.14
2023-05-04T11:24:48.440Z,20.32
2023-05-04T11:27:28.090Z,20.40
2023-05-04T11:29:54.730Z,20.46
2023-05-04T11:32:21.446Z,20.51
2023-05-04T11:34:48.110Z,20.52
2023-05-04T11:37:14.825Z,20.55
2023-05-04T11:39:41.411Z,20.60
2023-05-04T11:42:08.522Z,20.71
2023-05-04T11:44:36.818Z,20.81
2023-05-04T11:47:03.802Z,20.88
2023-05-04T11:49:30.727Z,20.92
2023-05-04T11:52:08.234Z,20.91
2023-05-04T11:54:35.089Z,20.96
2023-05-04T11:57:01.633Z,21.00
2023-05-04T11:59:28.369Z,21.08
2023-05-04T12:01:56.394Z,21.12
2023-05-04T12:04:23.435Z,21.06
2023-05-04T12:06:50.118Z,21.17
2023-05-04T12:09:16.728Z,21.22
2023-05-04T12:11:53.882Z,21.33
2023-05-04T12:14:20.467Z,21.41
2023-05-04T12:16:55.073Z,21.54
2023-05-04T12:19:21.690Z,21.65
2023-05-04T12:21:53.740Z,21.73
2023-05-04T12:24:24.341Z,21.85
2023-05-04T12:26:51.081Z,21.91
2023-05-04T12:29:17.942Z,21.95
2023-05-04T12:31:44.678Z,21.99
2023-05-04T12:34:11.319Z,22.03
2023-05-04T12:36:37.868Z,22.04
2023-05-04T12:39:04.513Z,22.05
2023-05-04T12:41:31.068Z,22.09
2023-05-04T12:43:57.736Z,22.16
2023-05-04T12:46:24.456Z,22.21
2023-05-04T12:48:51.167Z,22.19
2023-05-04T12:51:17.924Z,22.22
2023-05-04T12:53:45.094Z,22.21
2023-05-04T12:56:11.754Z,22.27
2023-05-04T12:58:38.373Z,22.33
2023-05-04T13:01:05.130Z,22.39
2023-05-04T13:03:31.896Z,22.50
2023-05-04T13:05:58.554Z,22.58
2023-05-04T13:08:25.250Z,22.63
2023-05-04T13:10:51.886Z,22.73
2023-05-04T13:13:19.984Z,22.75
2023-05-04T13:15:50.778Z,22.90
2023-05-04T13:18:17.532Z,22.97
2023-05-04T13:20:44.087Z,23.08
2023-05-04T13:23:10.779Z,23.17
2023-05-04T13:25:37.517Z,23.22
2023-05-04T13:28:04.280Z,23.26
2023-05-04T13:30:31.105Z,23.36
2023-05-04T13:32:57.919Z,23.41
2023-05-04T13:35:24.674Z,23.51
2023-05-04T13:37:51.232Z,23.51
2023-05-04T13:40:17.855Z,23.59
2023-05-04T13:42:44.653Z,23.61
2023-05-04T13:45:11.666Z,23.66
2023-05-04T13:47:38.276Z,23.81
2023-05-04T13:50:05.379Z,23.92
2023-05-04T13:52:32.338Z,23.94
2023-05-04T13:54:59.398Z,23.96
2023-05-04T13:57:26.462Z,24.02
2023-05-04T14:00:05.883Z,24.04
2023-05-04T14:02:39.942Z,24.09
2023-05-04T14:05:07.077Z,24.18
2023-05-04T14:07:35.002Z,24.31
2023-05-04T14:10:01.991Z,24.38
2023-05-04T14:12:28.580Z,24.43
2023-05-04T14:14:55.209Z,24.53
2023-05-04T14:17:21.819Z,24.57
2023-05-04T14:19:48.416Z,24.71
2023-05-04T14:22:14.971Z,24.87
2023-05-04T14:24:41.566Z,25.03
2023-05-04T14:27:08.148Z,25.22
2023-05-04T14:29:35.047Z,25.32
2023-05-04T14:32:01.770Z,25.42
2023-05-04T14:34:31.332Z,25.52
2023-05-04T14:36:57.887Z,25.69
2023-05-04T14:39:24.619Z,25.95
2023-05-04T14:41:51.494Z,26.17
2023-05-04T14:44:18.612Z,26.32
2023-05-04T14:46:45.253Z,26.40
2023-05-04T14:49:16.267Z,26.55
2023-05-04T14:51:51.541Z,26.67
2023-05-04T14:54:18.273Z,26.85
2023-05-04T14:56:44.952Z,26.98
2023-05-04T14:59:11.498Z,27.02
2023-05-04T15:01:38.204Z,27.08
2023-05-04T15:04:04.967Z,27.01
2023-05-04T15:06:31.542Z,26.99
2023-05-04T15:08:58.705Z,26.95
2023-05-04T15:11:25.325Z,26.87
2023-05-04T15:13:52.143Z,26.72
2023-05-04T15:16:18.845Z,26.61
2023-05-04T15:18:45.418Z,26.46
2023-05-04T15:21:12.644Z,26.32
2023-05-04T15:23:39.266Z,26.19
2023-05-04T15:26:05.848Z,26.10
2023-05-04T15:28:32.531Z,26.06
2023-05-04T15:30:59.135Z,26.09
2023-05-04T15:33:25.755Z,25.95
2023-05-04T15:35:52.325Z,25.85
2023-05-04T15:38:18.863Z,25.72
2023-05-04T15:40:45.536Z,25.66
2023-05-04T15:43:12.153Z,25.59
2023-05-04T15:45:38.708Z,25.61
2023-05-04T15:48:05.638Z,25.62
2023-05-04T15:50:33.053Z,25.65
2023-05-04T15:52:59.849Z,25.58
2023-05-04T15:55:26.777Z,25.51
2023-05-04T15:57:53.480Z,25.46
2023-05-04T16:00:20.363Z,25.41
2023-05-04T16:02:47.190Z,25.41
2023-05-04T16:05:13.876Z,25.40
2023-05-04T16:07:40.488Z,25.36
2023-05-04T16:10:08.268Z,25.31
2023-05-04T16:12:35.284Z,25.28
2023-05-04T16:15:01.849Z,25.28
2023-05-04T16:17:28.471Z,25.31
2023-05-04T16:19:55.075Z,25.30
2023-05-04T16:22:21.698Z,25.35
2023-05-04T16:24:48.222Z,25.37
2023-05-04T16:27:14.762Z,25.35
2023-05-04T16:29:41.508Z,25.35
2023-05-04T16:32:08.074Z,25.42
2023-05-04T16:34:34.659Z,25.53
2023-05-04T16:37:01.984Z,25.61
2023-05-04T16:39:29.251Z,25.76
2023-05-04T16:41:56.970Z,26.01
2023-05-04T16:44:24.075Z,26.18
2023-05-04T16:46:50.829Z,26.30
2023-05-04T16:49:18.130Z,26.48
2023-05-04T16:51:44.847Z,26.65
2023-05-04T16:54:11.525Z,26.83
2023-05-04T16:56:38.390Z,27.03
2023-05-04T16:59:05.155Z,27.18
2023-05-04T17:01:32.129Z,27.18
2023-05-04T17:03:58.825Z,27.06
2023-05-04T17:06:25.751Z,27.02
2023-05-04T17:08:52.358Z,26.89
2023-05-04T17:11:19.178Z,26.75
2023-05-04T17:13:45.849Z,26.64
2023-05-04T17:16:12.849Z,26.49
2023-05-04T17:18:39.456Z,26.36
2023-05-04T17:21:06.083Z,26.34
2023-05-04T17:23:32.855Z,26.35
2023-05-04T17:26:01.128Z,26.39
2023-05-04T17:28:28.047Z,26.32
2023-05-04T17:30:54.693Z,26.25
2023-05-04T17:33:21.264Z,26.16
2023-05-04T17:35:48.236Z,25.99
2023-05-04T17:38:15.378Z,25.78
2023-05-04T17:40:42.182Z,25.54
2023-05-04T17:43:09.771Z,25.28
2023-05-04T17:45:36.957Z,25.03
2023-05-04T17:48:04.155Z,24.77
2023-05-04T17:50:31.223Z,24.51
2023-05-04T17:52:58.158Z,24.25
2023-05-04T17:55:25.164Z,23.99
2023-05-04T17:57:53.427Z,23.74
2023-05-04T18:00:20.997Z,23.49
2023-05-04T18:02:47.929Z,23.23
2023-05-04T18:05:14.910Z,22.97
2023-05-04T18:07:41.664Z,22.76
2023-05-04T18:10:09.126Z,22.50
2023-05-04T18:12:38.271Z,22.26
2023-05-04T18:15:05.776Z,22.04
2023-05-04T18:17:32.652Z,21.80
2023-05-04T18:19:59.484Z,21.59
2023-05-04T18:22:26.138Z,21.38
2023-05-04T18:24:52.801Z,21.19
2023-05-04T18:27:19.446Z,20.99
2023-05-04T18:29:45.996Z,20.79
2023-05-04T18:32:12.530Z,20.62
2023-05-04T18:34:39.099Z,20.44
2023-05-04T18:37:08.478Z,20.26
2023-05-04T18:39:35.067Z,20.09
2023-05-04T18:42:01.710Z,19.94
2023-05-04T18:44:28.313Z,19.78
2023-05-04T18:46:54.895Z,19.64
2023-05-04T18:49:21.439Z,19.50
2023-05-04T18:51:47.989Z,19.36
2023-05-04T18:54:14.535Z,19.24
2023-05-04T18:56:43.539Z,19.12
2023-05-04T18:59:10.384Z,19.01
2023-05-04T19:01:40.112Z,18.90
2023-05-04T19:04:06.813Z,18.78
2023-05-04T19:06:33.767Z,18.67
2023-05-04T19:09:00.406Z,18.58
2023-05-04T19:11:27.075Z,18.46
2023-05-04T19:13:53.867Z,18.40
2023-05-04T19:16:20.598Z,18.31
2023-05-04T19:18:47.428Z,18.22
2023-05-04T19:21:14.414Z,18.14
2023-05-04T19:23:41.326Z,18.06
2023-05-04T19:26:08.140Z,17.97
2023-05-04T19:28:35.304Z,17.90
2023-05-04T19:31:02.027Z,17.82
2023-05-04T19:33:40.406Z,17.76
2023-05-04T19:36:14.226Z,17.67
2023-05-04T19:38:40.822Z,17.59
2023-05-04T19:41:07.482Z,17.51
2023-05-04T19:43:34.114Z,17.45
2023-05-04T19:46:03.581Z,17.37
2023-05-04T19:48:30.248Z,17.32
2023-05-04T19:50:56.942Z,17.26
2023-05-04T19:53:23.916Z,17.21
2023-05-04T19:55:50.484Z,17.15
2023-05-04T19:58:17.075Z,17.10
2023-05-04T20:00:43.721Z,17.04
2023-05-04T20:03:10.445Z,16.97
2023-05-04T20:05:37.043Z,16.91
2023-05-04T20:08:05.090Z,16.85
2023-05-04T20:10:32.136Z,16.80
2023-05-04T20:12:58.876Z,16.74
2023-05-04T20:15:25.593Z,16.68
2023-05-04T20:17:52.269Z,16.63
2023-05-04T20:20:19.009Z,16.57
2023-05-04T20:22:46.493Z,16.52
2023-05-04T20:25:13.134Z,16.45
2023-05-04T20:27:39.746Z,16.39
2023-05-04T20:30:07.279Z,16.33
2023-05-04T20:32:34.013Z,16.27
2023-05-04T20:35:00.666Z,16.21
2023-05-04T20:37:27.253Z,16.14
2023-05-04T20:39:54.209Z,16.09
2023-05-04T20:42:20.743Z,16.02
2023-05-04T20:44:47.383Z,15.95
2023-05-04T20:47:13.987Z,15.90
2023-05-04T20:49:40.905Z,15.83
2023-05-04T20:52:07.463Z,15.78
2023-05-04T20:54:34.056Z,15.72
2023-05-04T20:57:00.802Z,15.67
2023-05-04T20:59:27.556Z,15.62
2023-05-04T21:01:54.218Z,15.57
2023-05-04T21:04:20.912Z,15.52
2023-05-04T21:06:48.336Z,15.48
2023-05-04T21:09:15.235Z,15.43
2023-05-04T21:11:41.760Z,15.40
2023-05-04T21:14:08.487Z,15.34
2023-05-04T21:16:35.179Z,15.32
2023-05-04T21:19:01.762Z,15.28
2023-05-04T21:21:28.528Z,15.24
2023-05-04T21:23:55.127Z,15.20
2023-05-04T21:26:21.664Z,15.17
2023-05-04T21:28:48.263Z,15.13
2023-05-04T21:31:14.863Z,15.09
2023-05-04T21:33:41.846Z,15.05
2023-05-04T21:36:15.229Z,15.01
2023-05-04T21:38:42.086Z,14.98
2023-05-04T21:41:13.291Z,14.97
2023-05-04T21:43:40.183Z,14.94
2023-05-04T21:46:06.864Z,14.91
2023-05-04T21:48:33.815Z,14.90
2023-05-04T21:51:00.970Z,14.85
2023-05-04T21:53:27.694Z,14.82
2023-05-04T21:55:54.441Z,14.79
2023-05-04T21:58:21.175Z,14.75
2023-05-04T22:00:47.775Z,14.72
2023-05-04T22:03:14.415Z,14.67
2023-05-04T22:05:41.111Z,14.62
2023-05-04T22:08:07.972Z,14.59
2023-05-04T22:10:34.537Z,14.52
2023-05-04T22:13:01.145Z,14.48
2023-05-04T22:15:38.046Z,14.43
2023-05-04T22:18:09.003Z,14.38
2023-05-04T22:20:35.703Z,14.35
2023-05-04T22:23:02.263Z,14.29
2023-05-04T22:25:28.911Z,14.24
2023-05-04T22:27:55.497Z,14.21
2023-05-04T22:30:22.133Z,14.15
2023-05-04T22:32:48.955Z,14.11
2023-05-04T22:35:15.570Z,14.07
2023-05-04T22:37:42.311Z,14.01
2023-05-04T22:40:09.536Z,13.98
2023-05-04T22:42:36.338Z,13.92
2023-05-04T22:45:02.909Z,13.88
2023-05-04T22:47:29.601Z,13.86
2023-05-04T22:49:56.527Z,13.82
2023-05-04T22:52:24.432Z,13.77
2023-05-04T22:54:51.058Z,13.65
2023-05-04T22:57:17.591Z,13.68
2023-05-04T22:59:44.270Z,13.65
2023-05-04T23:02:11.860Z,13.62
2023-05-04T23:04:39.415Z,13.56
2023-05-04T23:07:05.979Z,13.53
2023-05-04T23:09:32.651Z,13.49
2023-05-04T23:11:59.204Z,13.44
2023-05-04T23:14:25.770Z,13.40
2023-05-04T23:16:52.317Z,13.37
2023-05-04T23:19:18.904Z,13.34
2023-05-04T23:21:45.548Z,13.30
2023-05-04T23:24:12.149Z,13.28
2023-05-04T23:26:38.718Z,13.23
2023-05-04T23:29:05.373Z,13.21
2023-05-04T23:31:32.176Z,13.17
2023-05-04T23:33:58.820Z,13.15
2023-05-04T23:36:25.396Z,13.11
2023-05-04T23:38:51.981Z,13.09
2023-05-04T23:41:18.541Z,13.05
2023-05-04T23:43:45.169Z,13.03
2023-05-04T23:46:11.786Z,13.00
2023-05-04T23:48:38.417Z,12.98
2023-05-04T23:51:05.606Z,12.96
2023-05-04T23:53:32.688Z,12.93
2023-05-04T23:56:04.595Z,12.90
2023-05-04T23:58:32.849Z,12.87
